map of BVC home
BVC - Airport
Location
City:  Rabil, Boa Vista, Cape Verde
Name:Rabil International Airport
ICAO:GVBA
IATA:BVC

Details
Type:Airport (Aerodrome, Airfield)
Use:Public/Civil, International (customs port of entry)
Latitude:1608'12"N (16.136531)
Longitude:2253'20"W (-22.888896)
Datum:WGS 1984
Elevation:69 ft (21 m)
Variation:9.22W (WMM2015 magnetic declination)
0.12 annual change
Runways:1
Longest:4007 × 98 ft (1221 × 30 m), paved

Time
Time Zone:UTC-1
Local Time:

Weather
METAR:GVBA 161900Z 01012KT 6000 FEW015 SCT200 22/17 Q1015 NOSIG
TAF:GVBA 161100Z 1612/1718 03014KT 9999 SCT014 PROB30
TEMPO 1712/1718 04016G26KT

Related Locations
Nearby:
Farthest:MIS: 11965 mi / 19255 km
Misima Island, MBA, PG

Find:

   beyond  
but within

Other Information
Maps:
NOTAMs:
Links:
Sources:

  
  • flag of Cape Verde
  

Sectional Chart

Flight Planning
at skyvector.com

Satellite Image

Google Maps Satellite view

 

Copyright © 2004-2019 Karl L. Swartz. All rights reserved.
The Great Circle Mapper name and logo are trademarks of the Great Circle Mapper.
All other trademarks mentioned herein belong to their respective owners.
Please see credits for attibutions and further copyright information.

  Follow gcmap on Facebook Follow gcmap on Twitter Follow gcmap on Google+ GCmap on LinkedIn

hCard Microformat

Geo Microformat